Air Resources Laboratory banner image
Air Resources Laboratory web site National Oceanic and Atmospheric Administration (NOAA)

ct metar


KBDL 182351Z 15005KT 10SM OVC040 02/M05 A3030 RMK AO2 SLP263 4/002 T00221050
 10050 20022 58004=
KBDR 182352Z 09006KT 10SM FEW031 OVC040 06/00 A3029 RMK AO2 SLP258 T00610000
 10061 20050 58009=
KDXR 182353Z 09003KT 10SM OVC033 02/M03 A3028 RMK AO2 SLP258 60000 T00221028
 10033 20022 58008=
KGON 182356Z 01003KT 10SM OVC044 04/M04 A3031 RMK AO2 SLP264 T00441044 10056
 20044 58004=
KHFD 182353Z 00000KT 10SM OVC045 03/M04 A3032 RMK AO2 SLP265 T00331044 10039
 20033 56004=
KHVN 182353Z 06003KT 10SM OVC038 04/M04 A3030 RMK AO2 SLP260 T00441039 10056
 20044 56007=
KIJD 182352Z AUTO 00000KT 10SM OVC043 02/M03 A3031 RMK AO2 SLP265 T00221033
 10033 20022 58006=
KMMK 182353Z AUTO 00000KT 10SM OVC043 03/M03 A3031 RMK AO2 SLP265 T00281033
 10039 20022 56006 $=
KOXC 182351Z 00000KT 10SM OVC034 02/M04 A3028 RMK AO2 SLP273 T00171044 10028
 20017 58006=